createdAt,value
2022-08-01T00:02:20.932Z,100709.53
2022-08-01T00:05:09.559Z,100711.03
2022-08-01T00:07:56.281Z,100695.03
2022-08-01T00:10:42.938Z,100696.97
2022-08-01T00:13:29.755Z,100696.56
2022-08-01T00:16:18.001Z,100701.63
2022-08-01T00:19:05.080Z,100713.00
2022-08-01T00:21:52.235Z,100703.78
2022-08-01T00:24:39.162Z,100708.63
2022-08-01T00:27:26.628Z,100700.16
2022-08-01T00:30:14.830Z,100701.88
2022-08-01T00:33:03.521Z,100695.06
2022-08-01T00:35:49.932Z,100697.66
2022-08-01T00:38:36.750Z,100706.91
2022-08-01T00:41:23.689Z,100702.69
2022-08-01T00:44:10.281Z,100710.00
2022-08-01T00:46:57.022Z,100717.09
2022-08-01T00:49:45.503Z,100716.34
2022-08-01T00:52:36.629Z,100702.91
2022-08-01T00:55:23.396Z,100716.63
2022-08-01T00:58:09.951Z,100712.59
2022-08-01T01:00:59.453Z,100711.66
2022-08-01T01:03:59.459Z,100707.91
2022-08-01T01:06:56.336Z,100700.94
2022-08-01T01:09:51.118Z,100702.38
2022-08-01T01:12:48.238Z,100710.63
2022-08-01T01:15:43.695Z,100704.31
2022-08-01T01:18:36.588Z,100700.47
2022-08-01T01:21:41.844Z,100702.00
2022-08-01T01:24:39.900Z,100702.06
2022-08-01T01:27:37.557Z,100704.66
2022-08-01T01:30:28.735Z,100704.19
2022-08-01T01:33:16.615Z,100698.38
2022-08-01T01:36:11.457Z,100696.19
2022-08-01T01:38:58.983Z,100687.59
2022-08-01T01:41:47.470Z,100685.56
2022-08-01T01:44:34.735Z,100695.72
2022-08-01T01:47:23.671Z,100688.19
2022-08-01T01:50:13.903Z,100690.00
2022-08-01T01:53:03.028Z,100689.47
2022-08-01T01:55:53.988Z,100684.31
2022-08-01T01:58:41.349Z,100680.84
2022-08-01T02:01:58.515Z,100680.84
2022-08-01T02:04:43.570Z,100673.13
2022-08-01T02:07:31.480Z,100673.50
2022-08-01T02:10:20.157Z,100662.50
2022-08-01T02:13:15.859Z,100674.38
2022-08-01T02:16:06.112Z,100681.75
2022-08-01T02:18:53.093Z,100673.03
2022-08-01T02:21:46.339Z,100676.97
2022-08-01T02:24:38.527Z,100675.34
2022-08-01T02:27:30.756Z,100669.59
2022-08-01T02:30:18.111Z,100676.09
2022-08-01T02:33:15.602Z,100671.63
2022-08-01T02:36:30.243Z,100674.38
2022-08-01T02:39:16.222Z,100673.34
2022-08-01T02:42:08.618Z,100676.31
2022-08-01T02:44:56.845Z,100676.50
2022-08-01T02:47:44.435Z,100679.25
2022-08-01T02:50:34.176Z,100675.81
2022-08-01T02:53:39.079Z,100676.84
2022-08-01T02:56:36.796Z,100680.47
2022-08-01T02:59:26.885Z,100683.00
2022-08-01T03:02:15.662Z,100683.25
2022-08-01T03:05:03.415Z,100679.22
2022-08-01T03:07:51.002Z,100689.66
2022-08-01T03:10:40.503Z,100702.94
2022-08-01T03:13:31.712Z,100699.69
2022-08-01T03:16:20.144Z,100697.09
2022-08-01T03:19:07.288Z,100700.66
2022-08-01T03:21:55.627Z,100706.28
2022-08-01T03:24:44.650Z,100707.16
2022-08-01T03:27:32.185Z,100698.25
2022-08-01T03:30:20.201Z,100699.31
2022-08-01T03:33:06.984Z,100705.41
2022-08-01T03:35:56.532Z,100708.09
2022-08-01T03:38:45.594Z,100699.97
2022-08-01T03:41:39.876Z,100707.06
2022-08-01T03:44:31.180Z,100705.91
2022-08-01T03:47:24.761Z,100710.22
2022-08-01T03:50:14.009Z,100711.56
2022-08-01T03:53:03.700Z,100709.59
2022-08-01T03:55:52.482Z,100713.81
2022-08-01T03:58:41.335Z,100713.59
2022-08-01T04:01:29.313Z,100714.28
2022-08-01T04:04:17.515Z,100717.06
2022-08-01T04:07:07.831Z,100710.84
2022-08-01T04:09:55.663Z,100718.59
2022-08-01T04:12:42.522Z,100721.75
2022-08-01T04:15:29.551Z,100726.91
2022-08-01T04:18:16.895Z,100718.19
2022-08-01T04:21:06.128Z,100715.34
2022-08-01T04:23:54.796Z,100717.06
2022-08-01T04:26:43.579Z,100721.25
2022-08-01T04:29:32.330Z,100714.94
2022-08-01T04:32:22.561Z,100709.78
2022-08-01T04:35:23.347Z,100714.38
2022-08-01T04:38:24.347Z,100714.84
2022-08-01T04:41:14.659Z,100721.72
2022-08-01T04:44:01.660Z,100724.84
2022-08-01T04:46:49.514Z,100727.50
2022-08-01T04:49:48.425Z,100722.09
2022-08-01T04:52:36.913Z,100720.38
2022-08-01T04:55:24.833Z,100727.22
2022-08-01T04:58:17.399Z,100720.69
2022-08-01T05:01:04.986Z,100729.94
2022-08-01T05:03:51.809Z,100723.50
2022-08-01T05:06:38.493Z,100724.56
2022-08-01T05:09:29.459Z,100718.13
2022-08-01T05:12:20.072Z,100728.56
2022-08-01T05:15:14.802Z,100733.06
2022-08-01T05:18:02.380Z,100738.53
2022-08-01T05:20:49.269Z,100732.13
2022-08-01T05:23:42.799Z,100736.97
2022-08-01T05:26:30.239Z,100740.09
2022-08-01T05:29:19.866Z,100740.28
2022-08-01T05:32:07.471Z,100740.50
2022-08-01T05:34:54.469Z,100740.09
2022-08-01T05:37:44.322Z,100737.72
2022-08-01T05:40:31.961Z,100738.88
2022-08-01T05:43:19.118Z,100740.59
2022-08-01T05:46:07.350Z,100739.63
2022-08-01T05:48:55.612Z,100733.84
2022-08-01T05:51:44.328Z,100739.47
2022-08-01T05:54:31.254Z,100743.63
2022-08-01T05:57:17.758Z,100737.41
2022-08-01T06:00:05.334Z,100741.28
2022-08-01T06:02:59.528Z,100748.41
2022-08-01T06:05:46.556Z,100754.41
2022-08-01T06:08:35.747Z,100759.00
2022-08-01T06:11:23.416Z,100754.38
2022-08-01T06:14:10.897Z,100759.44
2022-08-01T06:16:58.130Z,100766.09
2022-08-01T06:19:46.259Z,100767.31
2022-08-01T06:22:33.092Z,100771.25
2022-08-01T06:25:21.342Z,100774.78
2022-08-01T06:28:10.286Z,100778.63
2022-08-01T06:30:59.619Z,100772.78
2022-08-01T06:33:50.510Z,100780.34
2022-08-01T06:36:44.169Z,100779.91
2022-08-01T06:39:31.321Z,100778.84
2022-08-01T06:42:18.560Z,100767.47
2022-08-01T06:45:06.344Z,100767.41
2022-08-01T06:47:52.847Z,100774.50
2022-08-01T06:50:39.695Z,100775.47
2022-08-01T06:53:27.807Z,100775.47
2022-08-01T06:56:17.600Z,100772.78
2022-08-01T06:59:04.956Z,100778.59
2022-08-01T07:01:52.132Z,100765.75
2022-08-01T07:04:38.919Z,100783.81
2022-08-01T07:07:25.693Z,100786.41
2022-08-01T07:10:15.156Z,100782.47
2022-08-01T07:13:01.678Z,100776.97
2022-08-01T07:15:48.552Z,100774.50
2022-08-01T07:18:35.380Z,100782.69
2022-08-01T07:21:38.389Z,100777.59
2022-08-01T07:24:26.953Z,100776.41
2022-08-01T07:27:24.440Z,100776.84
2022-08-01T07:30:13.508Z,100775.88
2022-08-01T07:33:00.183Z,100790.59
2022-08-01T07:35:47.118Z,100786.50
2022-08-01T07:38:33.648Z,100781.00
2022-08-01T07:41:20.509Z,100775.56
2022-08-01T07:44:29.145Z,100771.97
2022-08-01T07:47:16.551Z,100776.44
2022-08-01T07:50:03.799Z,100786.34
2022-08-01T07:52:50.310Z,100782.88
2022-08-01T07:55:37.178Z,100787.75
2022-08-01T07:58:23.684Z,100784.06
2022-08-01T08:01:11.766Z,100792.78
2022-08-01T08:03:58.403Z,100795.97
2022-08-01T08:06:45.755Z,100790.13
2022-08-01T08:09:37.887Z,100796.59
2022-08-01T08:12:28.441Z,100797.44
2022-08-01T08:15:15.607Z,100797.31
2022-08-01T08:18:05.489Z,100803.41
2022-08-01T08:20:51.928Z,100808.09
2022-08-01T08:23:56.200Z,100812.34
2022-08-01T08:26:43.004Z,100804.66
2022-08-01T08:29:32.870Z,100804.75
2022-08-01T08:32:19.900Z,100803.91
2022-08-01T08:35:12.111Z,100811.38
2022-08-01T08:37:59.273Z,100815.09
2022-08-01T08:40:46.886Z,100813.59
2022-08-01T08:43:33.501Z,100818.50
2022-08-01T08:47:09.340Z,100826.66
2022-08-01T08:50:01.039Z,100820.69
2022-08-01T08:53:19.039Z,100821.16
2022-08-01T08:56:25.705Z,100827.19
2022-08-01T08:59:15.698Z,100822.91
2022-08-01T09:02:02.419Z,100823.84
2022-08-01T09:04:50.706Z,100815.31
2022-08-01T09:07:37.517Z,100828.41
2022-08-01T09:10:26.004Z,100823.75
2022-08-01T09:13:17.693Z,100827.78
2022-08-01T09:16:05.381Z,100831.94
2022-08-01T09:18:53.391Z,100836.97
2022-08-01T09:21:41.169Z,100834.56
2022-08-01T09:24:30.805Z,100836.88
2022-08-01T09:27:25.068Z,100840.19
2022-08-01T09:30:19.316Z,100841.88
2022-08-01T09:33:18.210Z,100862.13
2022-08-01T09:36:08.748Z,100851.97
2022-08-01T09:39:14.799Z,100859.78
2022-08-01T09:42:03.808Z,100870.28
2022-08-01T09:44:54.937Z,100853.06
2022-08-01T09:47:42.079Z,100863.22
2022-08-01T09:50:41.089Z,100873.13
2022-08-01T09:53:30.030Z,100877.66
2022-08-01T09:56:18.349Z,100873.53
2022-08-01T09:59:05.902Z,100876.91
2022-08-01T10:01:53.745Z,100869.13
2022-08-01T10:04:48.488Z,100867.38
2022-08-01T10:07:43.415Z,100874.09
2022-08-01T10:10:35.299Z,100878.56
2022-08-01T10:13:36.378Z,100880.38
2022-08-01T10:16:29.620Z,100888.59
2022-08-01T10:19:18.813Z,100895.13
2022-08-01T10:22:09.736Z,100893.91
2022-08-01T10:25:00.117Z,100875.88
2022-08-01T10:27:50.392Z,100900.53
2022-08-01T10:30:37.116Z,100890.97
2022-08-01T10:33:50.953Z,100888.00
2022-08-01T10:36:40.844Z,100888.94
2022-08-01T10:39:29.414Z,100887.88
2022-08-01T10:42:16.593Z,100886.06
2022-08-01T10:45:04.797Z,100887.16
2022-08-01T10:48:00.303Z,100887.25
2022-08-01T10:50:50.882Z,100894.97
2022-08-01T10:53:48.691Z,100898.59
2022-08-01T10:56:42.373Z,100897.56
2022-08-01T10:59:58.930Z,100904.94
2022-08-01T11:02:41.874Z,100908.91
2022-08-01T11:05:34.788Z,100903.72
2022-08-01T11:08:24.950Z,100907.88
2022-08-01T11:11:14.141Z,100914.25
2022-08-01T11:14:08.177Z,100915.38
2022-08-01T11:16:56.047Z,100906.56
2022-08-01T11:20:08.951Z,100915.25
2022-08-01T11:23:26.543Z,100914.25
2022-08-01T11:26:29.488Z,100923.84
2022-08-01T11:29:22.091Z,100911.47
2022-08-01T11:32:27.621Z,100915.56
2022-08-01T11:35:14.154Z,100919.19
2022-08-01T11:38:25.131Z,100923.41
2022-08-01T11:41:12.739Z,100921.69
2022-08-01T11:44:02.513Z,100928.84
2022-08-01T11:47:00.441Z,100918.91
2022-08-01T11:49:56.363Z,100923.72
2022-08-01T11:52:43.568Z,100930.22
2022-08-01T11:55:31.561Z,100935.59
2022-08-01T11:58:29.397Z,100934.66
2022-08-01T12:01:20.919Z,100937.34
2022-08-01T12:04:09.019Z,100940.00
2022-08-01T12:07:01.348Z,100933.59
2022-08-01T12:10:11.989Z,100939.34
2022-08-01T12:13:05.350Z,100941.94
2022-08-01T12:15:56.968Z,100936.50
2022-08-01T12:18:46.292Z,100898.44
2022-08-01T12:21:37.046Z,100950.78
2022-08-01T12:24:30.393Z,100952.53
2022-08-01T12:27:27.880Z,100948.34
2022-08-01T12:30:24.157Z,100948.88
2022-08-01T12:33:25.283Z,100949.72
2022-08-01T12:36:27.258Z,100954.19
2022-08-01T12:39:20.407Z,100953.69
2022-08-01T12:45:36.281Z,100964.50
2022-08-01T12:48:42.460Z,100960.94
2022-08-01T12:51:45.578Z,100961.78
2022-08-01T12:55:33.941Z,100956.00
2022-08-01T12:58:30.709Z,100956.72
2022-08-01T13:01:28.169Z,100962.81
2022-08-01T13:04:15.438Z,100958.06
2022-08-01T13:07:07.067Z,100960.38
2022-08-01T13:09:54.669Z,100965.19
2022-08-01T13:12:42.198Z,100964.88
2022-08-01T13:15:35.659Z,100967.28
2022-08-01T13:18:30.414Z,100967.19
2022-08-01T13:21:19.362Z,100971.72
2022-08-01T13:24:12.997Z,100971.44
2022-08-01T13:27:05.303Z,100977.31
2022-08-01T13:29:54.553Z,100977.72
2022-08-01T13:32:43.496Z,100980.19
2022-08-01T13:35:30.296Z,100976.19
2022-08-01T13:38:16.706Z,100977.19
2022-08-01T13:41:09.911Z,100973.44
2022-08-01T13:43:58.641Z,100969.28
2022-08-01T13:46:49.790Z,100978.34
2022-08-01T13:49:41.022Z,100982.41
2022-08-01T13:52:27.836Z,100976.69
2022-08-01T13:55:17.260Z,100979.66
2022-08-01T13:58:06.283Z,100976.19
2022-08-01T14:00:53.183Z,100982.84
2022-08-01T14:03:39.815Z,100980.13
2022-08-01T14:06:26.332Z,100973.97
2022-08-01T14:09:17.817Z,100956.25
2022-08-01T14:12:10.609Z,100981.59
2022-08-01T14:15:00.142Z,100985.75
2022-08-01T14:17:48.036Z,100984.78
2022-08-01T14:20:34.683Z,100977.53
2022-08-01T14:23:21.174Z,100990.34
2022-08-01T14:26:12.259Z,100989.09
2022-08-01T14:28:59.508Z,100996.59
2022-08-01T14:31:47.566Z,101000.34
2022-08-01T14:34:34.284Z,101006.97
2022-08-01T14:37:21.017Z,101006.59
2022-08-01T14:40:10.462Z,101009.88
2022-08-01T14:42:57.328Z,101009.00
2022-08-01T14:45:44.138Z,101013.31
2022-08-01T14:48:32.207Z,101016.88
2022-08-01T14:51:18.979Z,101017.50
2022-08-01T14:54:06.250Z,101015.69
2022-08-01T14:56:54.983Z,101019.13
2022-08-01T14:59:41.575Z,101017.16
2022-08-01T15:02:28.441Z,101021.81
2022-08-01T15:05:16.528Z,101021.34
2022-08-01T15:08:06.253Z,101022.06
2022-08-01T15:10:53.263Z,101020.00
2022-08-01T15:13:42.632Z,101018.88
2022-08-01T15:16:29.605Z,101013.97
2022-08-01T15:19:17.721Z,101019.50
2022-08-01T15:22:06.577Z,101021.19
2022-08-01T15:24:57.464Z,101017.84
2022-08-01T15:27:44.470Z,101012.13
2022-08-01T15:30:30.946Z,101020.97
2022-08-01T15:33:18.439Z,101027.69
2022-08-01T15:36:05.812Z,101020.47
2022-08-01T15:38:54.020Z,101027.09
2022-08-01T15:41:40.521Z,101025.97
2022-08-01T15:44:27.475Z,101019.22
2022-08-01T15:47:14.234Z,101028.34
2022-08-01T15:50:02.964Z,101023.03
2022-08-01T15:52:49.585Z,101029.13
2022-08-01T15:55:39.053Z,101038.28
2022-08-01T15:58:26.574Z,101032.34
2022-08-01T16:01:13.417Z,101044.72
2022-08-01T16:04:00.740Z,101020.75
2022-08-01T16:06:47.521Z,101043.63
2022-08-01T16:09:34.434Z,101038.69
2022-08-01T16:12:22.455Z,101041.69
2022-08-01T16:15:10.423Z,101037.28
2022-08-01T16:17:56.772Z,101045.91
2022-08-01T16:20:48.572Z,101049.59
2022-08-01T16:23:35.520Z,101041.88
2022-08-01T16:26:26.985Z,101045.97
2022-08-01T16:29:20.680Z,101043.50
2022-08-01T16:32:24.442Z,101047.97
2022-08-01T16:35:18.283Z,101057.59
2022-08-01T16:38:07.898Z,101042.88
2022-08-01T16:40:55.628Z,101043.00
2022-08-01T16:43:45.863Z,101041.34
2022-08-01T16:46:41.088Z,101044.41
2022-08-01T16:49:28.016Z,101048.84
2022-08-01T16:52:14.644Z,101048.59
2022-08-01T16:55:01.511Z,101048.69
2022-08-01T16:57:48.283Z,101046.88
2022-08-01T17:00:35.863Z,101047.03
2022-08-01T17:03:47.162Z,101048.50
2022-08-01T17:06:31.080Z,101049.59
2022-08-01T17:09:17.589Z,101046.41
2022-08-01T17:12:04.741Z,101050.81
2022-08-01T17:14:51.645Z,101055.56
2022-08-01T17:17:38.239Z,101059.38
2022-08-01T17:20:26.598Z,101056.28
2022-08-01T17:23:13.123Z,101056.28
2022-08-01T17:26:00.139Z,101055.94
2022-08-01T17:28:47.166Z,101060.66
2022-08-01T17:31:34.074Z,101063.19
2022-08-01T17:34:21.524Z,101070.94
2022-08-01T17:37:10.287Z,101074.38
2022-08-01T17:40:03.374Z,101071.66
2022-08-01T17:42:53.104Z,101070.13
2022-08-01T17:45:51.052Z,101081.66
2022-08-01T17:48:38.017Z,101075.19
2022-08-01T17:51:24.969Z,101074.31
2022-08-01T17:54:13.342Z,101085.75
2022-08-01T17:57:00.237Z,101092.09
2022-08-01T17:59:46.954Z,101086.03
2022-08-01T18:02:34.231Z,101089.00
2022-08-01T18:05:21.557Z,101090.97
2022-08-01T18:08:23.490Z,101084.75
2022-08-01T18:11:16.072Z,101085.97
2022-08-01T18:14:04.765Z,101090.25
2022-08-01T18:16:51.514Z,101091.09
2022-08-01T18:19:38.876Z,101085.84
2022-08-01T18:22:32.609Z,101088.44
2022-08-01T18:25:21.171Z,101089.94
2022-08-01T18:28:23.315Z,101094.88
2022-08-01T18:31:17.891Z,101095.63
2022-08-01T18:34:06.030Z,101095.63
2022-08-01T18:36:52.716Z,101102.50
2022-08-01T18:39:39.652Z,101107.84
2022-08-01T18:42:33.358Z,101111.16
2022-08-01T18:45:27.082Z,101104.75
2022-08-01T18:48:14.709Z,101111.81
2022-08-01T18:51:01.816Z,101113.03
2022-08-01T18:53:49.324Z,101111.50
2022-08-01T18:56:36.056Z,101110.66
2022-08-01T18:59:22.729Z,101115.91
2022-08-01T19:02:10.844Z,101116.50
2022-08-01T19:04:57.773Z,101122.44
2022-08-01T19:08:06.731Z,101124.72
2022-08-01T19:10:50.832Z,101130.78
2022-08-01T19:13:38.522Z,101134.22
2022-08-01T19:16:25.240Z,101139.31
2022-08-01T19:19:14.178Z,101146.00
2022-08-01T19:22:01.012Z,101149.16
2022-08-01T19:24:48.022Z,101153.25
2022-08-01T19:27:38.116Z,101159.94
2022-08-01T19:30:25.064Z,101165.38
2022-08-01T19:33:12.247Z,101170.47
2022-08-01T19:36:01.372Z,101164.53
2022-08-01T19:38:48.896Z,101173.78
2022-08-01T19:41:36.156Z,101183.06
2022-08-01T19:44:30.317Z,101184.09
2022-08-01T19:47:52.278Z,101182.63
2022-08-01T19:50:42.413Z,101193.44
2022-08-01T19:53:36.780Z,101195.44
2022-08-01T19:56:23.612Z,101197.59
2022-08-01T19:59:10.721Z,101199.94
2022-08-01T20:01:58.666Z,101198.09
2022-08-01T20:04:49.696Z,101206.50
2022-08-01T20:07:38.245Z,101208.41
2022-08-01T20:10:26.564Z,101215.47
2022-08-01T20:13:14.173Z,101216.00
2022-08-01T20:16:01.537Z,101219.72
2022-08-01T20:18:48.167Z,101218.78
2022-08-01T20:21:36.228Z,101218.88
2022-08-01T20:24:28.149Z,101222.50
2022-08-01T20:27:16.689Z,101227.88
2022-08-01T20:30:03.293Z,101218.94
2022-08-01T20:32:50.487Z,101231.84
2022-08-01T20:35:53.368Z,101225.88
2022-08-01T20:38:42.789Z,101230.91
2022-08-01T20:41:29.833Z,101234.72
2022-08-01T20:44:20.039Z,101231.44
2022-08-01T20:47:07.181Z,101233.50
2022-08-01T20:49:53.877Z,101235.31
2022-08-01T20:52:46.908Z,101241.78
2022-08-01T20:55:45.445Z,101238.31
2022-08-01T20:58:43.777Z,101234.34
2022-08-01T21:01:35.563Z,101245.38
2022-08-01T21:04:34.719Z,101244.16
2022-08-01T21:07:26.984Z,101239.25
2022-08-01T21:10:16.348Z,101244.06
2022-08-01T21:13:06.324Z,101252.59
2022-08-01T21:16:22.429Z,101256.44
2022-08-01T21:19:21.615Z,101262.31
2022-08-01T21:22:15.794Z,101267.03
2022-08-01T21:25:08.243Z,101270.03
2022-08-01T21:27:57.729Z,101272.78
2022-08-01T21:30:55.775Z,101277.44
2022-08-01T21:34:03.057Z,101279.25
2022-08-01T21:36:54.386Z,101280.25
2022-08-01T21:39:46.329Z,101285.53
2022-08-01T21:42:37.086Z,101290.88
2022-08-01T21:45:27.597Z,101293.81
2022-08-01T21:48:17.353Z,101296.63
2022-08-01T21:51:28.317Z,101300.25
2022-08-01T21:54:26.103Z,101287.31
2022-08-01T21:57:25.515Z,101295.59
2022-08-01T22:00:25.678Z,101294.00
2022-08-01T22:03:24.522Z,101292.34
2022-08-01T22:06:14.965Z,101293.72
2022-08-01T22:09:07.138Z,101298.59
2022-08-01T22:11:59.352Z,101301.53
2022-08-01T22:14:51.708Z,101307.25
2022-08-01T22:17:39.975Z,101291.16
2022-08-01T22:20:30.675Z,101308.56
2022-08-01T22:23:18.996Z,101305.25
2022-08-01T22:26:08.183Z,101309.09
2022-08-01T22:28:56.543Z,101306.63
2022-08-01T22:31:43.619Z,101289.88
2022-08-01T22:34:30.236Z,101307.19
2022-08-01T22:37:17.148Z,101310.81
2022-08-01T22:40:23.734Z,101316.63
2022-08-01T22:43:18.874Z,101312.38
2022-08-01T22:46:22.509Z,101318.72
2022-08-01T22:49:23.063Z,101322.47
2022-08-01T22:52:14.353Z,101328.94
2022-08-01T22:55:05.102Z,101322.59
2022-08-01T22:57:58.707Z,101323.28
2022-08-01T23:00:48.823Z,101321.53
2022-08-01T23:03:40.829Z,101322.88
2022-08-01T23:06:38.834Z,101315.94
2022-08-01T23:09:48.070Z,101323.16
2022-08-01T23:12:33.622Z,101324.88
2022-08-01T23:15:21.739Z,101329.63
2022-08-01T23:18:08.685Z,101328.91
2022-08-01T23:20:59.235Z,101327.16
2022-08-01T23:23:48.306Z,101328.31
2022-08-01T23:26:37.295Z,101318.88
2022-08-01T23:29:30.209Z,101332.25
2022-08-01T23:32:18.592Z,101325.00
2022-08-01T23:35:06.819Z,101322.81
2022-08-01T23:38:01.996Z,101315.88
2022-08-01T23:40:51.205Z,101320.97
2022-08-01T23:43:37.941Z,101316.63
2022-08-01T23:46:39.094Z,101318.41
2022-08-01T23:49:25.781Z,101311.88
2022-08-01T23:52:13.021Z,101304.41
2022-08-01T23:55:14.963Z,101306.66
2022-08-01T23:58:03.926Z,101300.03
